Time;durP1;ratioP1;P1;durP2;ratioP2;P2;SDS_P1;SDS_P2;PMS_P1;PMS_P2;Temp;Humidity;BMP_temperature;BMP_pressure;BME280_temperature;BME280_humidity;BME280_pressure;Samples;Min_cycle;Max_cycle;Signal;HPM_P1;HPM_P2
2022/07/26 00:00:11;;;;;;;11.35;8.43;;;20.80;99.90;;;;;;5072966;28;20056;-65
2022/07/26 00:02:39;;;;;;;12.35;7.60;;;20.80;99.90;;;;;;5062718;28;20440;-66
2022/07/26 00:05:15;;;;;;;11.20;7.72;;;20.70;99.90;;;;;;5052092;28;20127;-65
2022/07/26 00:07:42;;;;;;;14.40;8.45;;;20.70;99.90;;;;;;5051553;28;20047;-66
2022/07/26 00:10:09;;;;;;;10.90;7.57;;;20.70;99.90;;;;;;5063120;28;20052;-65
2022/07/26 00:12:36;;;;;;;12.68;8.15;;;20.70;99.90;;;;;;5056371;28;20048;-66
2022/07/26 00:15:05;;;;;;;15.30;8.48;;;20.70;99.90;;;;;;5051632;28;20044;-65
2022/07/26 00:17:32;;;;;;;10.10;8.02;;;20.60;99.90;;;;;;5052008;28;20048;-65
2022/07/26 00:19:59;;;;;;;10.27;8.20;;;20.60;99.90;;;;;;5052059;28;20617;-65
2022/07/26 00:22:35;;;;;;;24.42;11.73;;;20.50;99.90;;;;;;5051763;28;20037;-65
2022/07/26 00:25:06;;;;;;;18.75;9.32;;;20.50;99.90;;;;;;5051647;28;20044;-65
2022/07/26 00:27:37;;;;;;;25.88;9.90;;;20.40;99.90;;;;;;5052334;28;20040;-67
2022/07/26 00:30:06;;;;;;;22.15;10.40;;;20.30;99.90;;;;;;5051435;28;20845;-66
2022/07/26 00:32:33;;;;;;;14.90;9.93;;;20.00;99.90;;;;;;5052415;28;20045;-66
2022/07/26 00:35:00;;;;;;;21.25;9.82;;;19.80;99.90;;;;;;5051694;28;20045;-66
2022/07/26 00:37:28;;;;;;;19.73;10.60;;;19.60;99.90;;;;;;5069095;28;20693;-66
2022/07/26 00:39:55;;;;;;;25.60;9.93;;;19.40;99.90;;;;;;5071409;28;20036;-67
2022/07/26 00:42:22;;;;;;;15.90;10.43;;;19.20;99.90;;;;;;5069532;28;20067;-66
2022/07/26 00:44:49;;;;;;;17.48;9.18;;;19.00;99.90;;;;;;5075609;28;20634;-66
2022/07/26 00:47:16;;;;;;;15.85;10.18;;;18.80;99.90;;;;;;5057734;28;20540;-67
2022/07/26 00:49:43;;;;;;;15.40;8.52;;;18.70;99.90;;;;;;5076315;28;20044;-65
2022/07/26 00:52:11;;;;;;;18.30;11.10;;;18.60;99.90;;;;;;5075481;28;20697;-65
2022/07/26 00:54:42;;;;;;;20.23;10.98;;;18.50;99.90;;;;;;5075985;28;20036;-65
2022/07/26 00:57:09;;;;;;;17.90;10.15;;;18.40;99.90;;;;;;5075511;28;20044;-65
2022/07/26 00:59:36;;;;;;;16.58;10.02;;;18.30;99.90;;;;;;5076041;28;20036;-64
2022/07/26 01:02:05;;;;;;;14.10;8.75;;;18.20;99.90;;;;;;5075823;28;20048;-65
2022/07/26 01:04:32;;;;;;;18.75;10.02;;;18.20;99.90;;;;;;5067181;28;20048;-65
2022/07/26 01:06:59;;;;;;;19.10;9.90;;;18.10;99.90;;;;;;5055800;28;20093;-65
2022/07/26 01:09:27;;;;;;;18.38;9.25;;;18.10;99.90;;;;;;5059809;28;20048;-65
2022/07/26 01:11:53;;;;;;;19.45;10.85;;;18.00;99.90;;;;;;5065994;28;20086;-65
2022/07/26 01:14:23;;;;;;;17.25;10.38;;;18.10;99.90;;;;;;5054294;28;20056;-65
2022/07/26 01:16:50;;;;;;;14.80;9.82;;;18.00;99.90;;;;;;5055797;28;20780;-65
2022/07/26 01:19:17;;;;;;;21.50;11.27;;;18.00;99.90;;;;;;5054940;28;20068;-65
2022/07/26 01:21:45;;;;;;;19.58;10.07;;;18.00;99.90;;;;;;5055327;28;20044;-65
2022/07/26 01:24:11;;;;;;;20.88;12.02;;;18.00;99.90;;;;;;5054825;28;20060;-65
2022/07/26 01:26:38;;;;;;;;;;;17.90;99.90;;;;;;5055906;28;20076;-65
2022/07/26 01:29:05;;;;;;;22.90;11.50;;;18.00;99.90;;;;;;5055357;28;19963;-66
2022/07/26 01:31:32;;;;;;;15.43;10.68;;;17.90;99.90;;;;;;5055379;28;20412;-65
2022/07/26 01:33:59;;;;;;;19.00;11.07;;;17.90;99.90;;;;;;5054326;28;20044;-66
2022/07/26 01:36:26;;;;;;;16.35;11.15;;;17.90;99.90;;;;;;5063729;28;20043;-65
2022/07/26 01:38:53;;;;;;;15.45;11.30;;;17.90;99.90;;;;;;5057400;28;20093;-65
2022/07/26 01:41:20;;;;;;;18.42;10.95;;;17.90;99.90;;;;;;5074596;28;20468;-64
2022/07/26 01:44:03;;;;;;;18.05;11.90;;;17.90;99.90;;;;;;5071458;28;20523;-65
2022/07/26 01:46:30;;;;;;;21.13;11.10;;;17.90;99.90;;;;;;5074456;28;20869;-65
2022/07/26 01:48:57;;;;;;;;;;;17.90;99.90;;;;;;5075442;28;20048;-65
2022/07/26 01:51:24;;;;;;;16.45;10.88;;;17.90;99.90;;;;;;5075149;28;19959;-65
2022/07/26 01:53:51;;;;;;;;;;;17.90;99.90;;;;;;5075104;28;20048;-65
2022/07/26 01:56:17;;;;;;;16.80;9.45;;;17.90;99.90;;;;;;5073668;28;19946;-65
2022/07/26 01:58:44;;;;;;;;;;;17.90;99.90;;;;;;5057106;28;20118;-66
2022/07/26 02:01:11;;;;;;;15.80;9.68;;;17.90;99.90;;;;;;5075207;28;19966;-65
2022/07/26 02:03:38;;;;;;;13.25;8.23;;;17.90;99.90;;;;;;5073606;28;20466;-66
2022/07/26 02:06:05;;;;;;;;;;;17.80;99.90;;;;;;5075933;28;20036;-64
2022/07/26 02:08:32;;;;;;;13.30;8.60;;;17.80;99.90;;;;;;5074358;28;19927;-65
2022/07/26 02:10:59;;;;;;;;;;;17.80;99.90;;;;;;5058610;28;20040;-65
2022/07/26 02:13:41;;;;;;;12.13;8.48;;;17.80;99.90;;;;;;5067824;28;19934;-65
2022/07/26 02:16:10;;;;;;;13.52;7.63;;;17.70;99.90;;;;;;5054758;28;20045;-65
2022/07/26 02:18:39;;;;;;;15.48;7.68;;;17.70;99.90;;;;;;5054812;28;20040;-65
2022/07/26 02:21:06;;;;;;;9.63;7.50;;;17.60;99.90;;;;;;5054280;28;20049;-66
2022/07/26 02:23:34;;;;;;;15.23;7.88;;;17.60;99.90;;;;;;5074278;28;20048;-65
2022/07/26 02:26:06;;;;;;;10.02;6.47;;;17.60;99.90;;;;;;5074436;28;20048;-65
2022/07/26 02:28:33;;;;;;;9.65;7.25;;;17.50;99.90;;;;;;5074197;28;20064;-65
2022/07/26 02:31:00;;;;;;;;;;;17.50;99.90;;;;;;5073411;28;20051;-65
2022/07/26 02:33:27;;;;;;;10.40;7.20;;;17.40;99.90;;;;;;5073968;28;20023;-66
2022/07/26 02:35:53;;;;;;;;;;;17.40;99.90;;;;;;5070374;28;20040;-65
2022/07/26 02:38:20;;;;;;;9.82;7.35;;;17.40;99.90;;;;;;5053802;28;20026;-64
2022/07/26 02:40:49;;;;;;;13.20;8.30;;;17.30;99.90;;;;;;5054113;28;20040;-66
2022/07/26 02:43:16;;;;;;;12.88;7.85;;;17.30;99.90;;;;;;5060998;28;20123;-65
2022/07/26 02:45:43;;;;;;;13.18;7.30;;;17.30;99.90;;;;;;5073302;28;20048;-64
2022/07/26 02:48:26;;;;;;;11.88;7.47;;;17.20;99.90;;;;;;5073583;28;20130;-65
2022/07/26 02:50:53;;;;;;;16.75;9.23;;;17.20;99.90;;;;;;5073812;28;20040;-66
2022/07/26 02:53:20;;;;;;;;;;;17.20;99.90;;;;;;5074192;28;20051;-64
2022/07/26 02:55:47;;;;;;;16.38;8.48;;;17.20;99.90;;;;;;5074091;28;20415;-64
2022/07/26 02:58:13;;;;;;;;;;;17.20;99.90;;;;;;5055591;28;20032;-66
2022/07/26 03:00:40;;;;;;;18.15;9.73;;;17.20;99.90;;;;;;5073355;28;19932;-64
2022/07/26 03:03:07;;;;;;;;;;;17.20;99.90;;;;;;5073768;28;20743;-66
2022/07/26 03:05:34;;;;;;;13.48;8.30;;;17.20;99.90;;;;;;5053025;28;20007;-66
2022/07/26 03:08:00;;;;;;;;;;;17.20;99.90;;;;;;5053231;28;20044;-65
2022/07/26 03:10:27;;;;;;;11.80;9.25;;;17.20;99.90;;;;;;5066031;28;19985;-65
2022/07/26 03:12:55;;;;;;;8.65;7.75;;;17.20;99.90;;;;;;5054577;28;20466;-65
2022/07/26 03:15:22;;;;;;;;;;;17.20;99.90;;;;;;5051882;28;20786;-65
2022/07/26 03:17:49;;;;;;;17.20;9.27;;;17.30;99.90;;;;;;5053652;28;19924;-65
2022/07/26 03:20:16;;;;;;;14.20;8.90;;;17.30;99.90;;;;;;5054466;28;20041;-65
2022/07/26 03:22:43;;;;;;;14.50;9.82;;;17.30;99.90;;;;;;5053658;28;20040;-65
2022/07/26 03:25:09;;;;;;;;;;;17.30;99.90;;;;;;5054756;28;20044;-66
2022/07/26 03:27:36;;;;;;;14.73;8.63;;;17.30;99.90;;;;;;5036256;28;20034;-65
2022/07/26 03:30:04;;;;;;;15.18;10.38;;;17.30;99.90;;;;;;5054527;28;20040;-65
2022/07/26 03:32:31;;;;;;;14.85;10.00;;;17.30;99.90;;;;;;5054067;28;20051;-65
2022/07/26 03:34:58;;;;;;;9.77;8.30;;;17.30;99.90;;;;;;5053739;28;20045;-66
2022/07/26 03:37:25;;;;;;;;;;;17.30;99.90;;;;;;5071154;28;20039;-65
2022/07/26 03:40:12;;;;;;;12.20;9.23;;;17.30;99.90;;;;;;5073930;28;20024;-65
2022/07/26 03:42:38;;;;;;;9.85;8.02;;;17.30;99.90;;;;;;5073011;28;20044;-66
2022/07/26 03:45:05;;;;;;;;;;;17.30;99.90;;;;;;5072902;28;20101;-65
2022/07/26 03:47:32;;;;;;;11.10;7.63;;;17.30;99.90;;;;;;5073668;28;19930;-65
2022/07/26 03:49:59;;;;;;;;;;;17.30;99.90;;;;;;5074056;28;20054;-65
2022/07/26 03:52:26;;;;;;;10.85;7.25;;;17.30;99.90;;;;;;5073793;28;20148;-65
2022/07/26 03:54:53;;;;;;;11.73;8.13;;;17.30;99.90;;;;;;5054627;28;20055;-65
2022/07/26 03:57:19;;;;;;;11.43;8.15;;;17.40;99.90;;;;;;5073992;28;20109;-66
2022/07/26 03:59:46;;;;;;;;;;;17.30;99.90;;;;;;5074457;28;20185;-65
2022/07/26 04:02:13;;;;;;;14.50;7.85;;;17.20;99.90;;;;;;5056093;28;19924;-65
2022/07/26 04:04:40;;;;;;;11.88;7.43;;;17.30;99.90;;;;;;5059687;28;20060;-66
2022/07/26 04:07:08;;;;;;;12.52;7.32;;;17.20;99.90;;;;;;5053160;28;20090;-66
2022/07/26 04:09:35;;;;;;;8.38;6.93;;;17.20;99.90;;;;;;5059655;28;20040;-65
2022/07/26 04:12:01;;;;;;;;;;;17.10;99.90;;;;;;5063160;28;20055;-65
2022/07/26 04:14:28;;;;;;;7.53;6.38;;;17.10;99.90;;;;;;5052853;28;19946;-66
2022/07/26 04:16:55;;;;;;;;;;;17.10;99.90;;;;;;5054000;28;20056;-65
2022/07/26 04:19:21;;;;;;;15.95;7.22;;;17.10;99.90;;;;;;5052649;28;19928;-65
2022/07/26 04:21:48;;;;;;;;;;;17.00;99.90;;;;;;5053671;28;20044;-66
2022/07/26 04:24:15;;;;;;;6.32;5.45;;;17.00;99.90;;;;;;5053245;28;19924;-65
2022/07/26 04:26:42;;;;;;;;;;;17.00;99.90;;;;;;5053886;28;20044;-65
2022/07/26 04:29:08;;;;;;;9.30;5.10;;;17.00;99.90;;;;;;5053207;28;19924;-67
2022/07/26 04:31:37;;;;;;;9.13;4.45;;;17.00;99.90;;;;;;5054260;28;20033;-66
2022/07/26 04:34:04;;;;;;;8.07;5.05;;;17.00;99.90;;;;;;5034301;28;20048;-65
2022/07/26 04:36:31;;;;;;;7.97;4.95;;;17.00;99.90;;;;;;5062998;28;20052;-65
2022/07/26 04:38:58;;;;;;;7.90;4.78;;;17.00;99.90;;;;;;5072973;28;20036;-65
2022/07/26 04:41:25;;;;;;;;;;;17.00;99.90;;;;;;5074407;28;20515;-66
2022/07/26 04:43:52;;;;;;;9.52;5.20;;;17.00;99.90;;;;;;5072446;28;19924;-66
2022/07/26 04:46:18;;;;;;;;;;;17.00;99.90;;;;;;5071866;28;20565;-65
2022/07/26 04:48:45;;;;;;;9.40;4.68;;;17.00;99.90;;;;;;5073313;28;19963;-66
2022/07/26 04:51:12;;;;;;;8.65;5.40;;;17.00;99.90;;;;;;5072841;28;20764;-65
2022/07/26 04:53:39;;;;;;;;;;;16.90;99.90;;;;;;5073962;28;20044;-65
2022/07/26 04:56:06;;;;;;;6.20;4.50;;;16.90;99.90;;;;;;5073271;28;20447;-65
2022/07/26 04:58:32;;;;;;;7.63;4.65;;;16.90;99.90;;;;;;5054751;28;20050;-65
2022/07/26 05:00:59;;;;;;;;;;;16.80;99.90;;;;;;5073547;28;20035;-65
2022/07/26 05:03:41;;;;;;;7.25;4.28;;;16.80;99.90;;;;;;5053178;28;19931;-66
2022/07/26 05:06:08;;;;;;;;;;;16.80;99.90;;;;;;5074063;28;20184;-66
2022/07/26 05:08:35;;;;;;;6.18;4.13;;;16.80;99.90;;;;;;5073427;28;20685;-64
2022/07/26 05:11:02;;;;;;;;;;;16.90;99.90;;;;;;5055110;28;20456;-65
2022/07/26 05:13:29;;;;;;;5.65;4.50;;;16.90;99.90;;;;;;5065122;28;19924;-65
2022/07/26 05:15:58;;;;;;;6.68;4.30;;;16.90;99.90;;;;;;5051609;28;20049;-65
2022/07/26 05:18:25;;;;;;;9.95;4.95;;;16.90;99.90;;;;;;5034648;28;20032;-64
2022/07/26 05:20:52;;;;;;;6.00;3.85;;;16.90;99.90;;;;;;5053722;28;20598;-65
2022/07/26 05:23:19;;;;;;;5.63;4.45;;;16.90;99.90;;;;;;5069924;28;20104;-64
2022/07/26 05:25:46;;;;;;;7.25;4.95;;;16.90;99.90;;;;;;5073444;28;20044;-65
2022/07/26 05:28:28;;;;;;;4.35;3.85;;;16.90;99.90;;;;;;5037492;28;20135;-65
2022/07/26 05:30:55;;;;;;;4.65;3.95;;;17.00;99.90;;;;;;5074706;28;20051;-64
2022/07/26 05:33:22;;;;;;;4.47;4.00;;;17.00;99.90;;;;;;5076320;28;20052;-65
2022/07/26 05:35:48;;;;;;;;;;;17.00;99.90;;;;;;5073322;28;20097;-64
2022/07/26 05:38:15;;;;;;;10.98;5.07;;;17.10;99.90;;;;;;5056541;28;20317;-64
2022/07/26 05:40:42;;;;;;;4.40;3.75;;;17.10;99.90;;;;;;5054834;28;20040;-64
2022/07/26 05:43:16;;;;;;;10.20;4.50;;;17.10;99.90;;;;;;5056348;28;20098;-64
2022/07/26 05:45:43;;;;;;;6.72;6.03;;;17.20;99.90;;;;;;5059256;28;20067;-52
2022/07/26 05:48:09;;;;;;;8.80;4.93;;;17.20;99.90;;;;;;5057029;28;20047;-53
2022/07/26 05:50:36;;;;;;;7.18;5.30;;;17.20;99.90;;;;;;5058161;28;20578;-52
2022/07/26 05:53:03;;;;;;;5.50;4.90;;;17.30;99.90;;;;;;5076381;28;20044;-51
2022/07/26 05:55:30;;;;;;;;;;;17.40;99.90;;;;;;5077303;28;20044;-53
2022/07/26 05:57:56;;;;;;;7.60;5.55;;;17.40;99.90;;;;;;5076092;28;20619;-53
2022/07/26 06:00:23;;;;;;;;;;;17.50;99.90;;;;;;5077254;28;20130;-52
2022/07/26 06:02:50;;;;;;;7.82;4.60;;;17.50;99.90;;;;;;5075253;28;19924;-51
2022/07/26 06:05:17;;;;;;;10.77;5.88;;;17.60;99.90;;;;;;5074505;28;20500;-53
2022/07/26 06:07:44;;;;;;;8.65;5.43;;;17.60;99.90;;;;;;5075395;28;20048;-53
2022/07/26 06:10:11;;;;;;;9.88;5.35;;;17.70;99.90;;;;;;5063363;28;20052;-52
2022/07/26 06:12:38;;;;;;;14.65;5.70;;;17.80;99.90;;;;;;5070965;28;20265;-53
2022/07/26 06:15:05;;;;;;;6.63;5.03;;;17.80;99.90;;;;;;5055325;28;20052;-52
2022/07/26 06:17:42;;;;;;;7.90;4.53;;;17.90;99.90;;;;;;5055837;28;20654;-52
2022/07/26 06:20:09;;;;;;;10.63;6.07;;;18.00;99.90;;;;;;5037177;28;20623;-54
2022/07/26 06:22:36;;;;;;;12.23;5.70;;;18.00;99.90;;;;;;5046003;28;20052;-53
2022/07/26 06:25:03;;;;;;;;;;;18.00;99.90;;;;;;5055562;28;20048;-53
2022/07/26 06:27:31;;;;;;;6.85;5.03;;;18.10;99.90;;;;;;5055715;28;19930;-52
2022/07/26 06:29:58;;;;;;;7.60;5.25;;;18.10;99.90;;;;;;5055128;28;20079;-51
2022/07/26 06:32:25;;;;;;;7.13;4.90;;;18.20;99.90;;;;;;5067655;28;20063;-53
2022/07/26 06:34:51;;;;;;;;;;;18.20;99.90;;;;;;5075591;28;20434;-53
2022/07/26 06:37:18;;;;;;;7.05;4.60;;;18.20;99.90;;;;;;5056871;28;19931;-52
2022/07/26 06:39:45;;;;;;;8.07;5.20;;;18.20;99.90;;;;;;5075421;28;20044;-52
2022/07/26 06:42:12;;;;;;;;;;;18.20;99.90;;;;;;5075179;28;20517;-53
2022/07/26 06:44:38;;;;;;;6.75;4.90;;;18.20;99.90;;;;;;5074917;28;19978;-52
2022/07/26 06:47:05;;;;;;;5.18;4.63;;;18.20;99.90;;;;;;5073235;28;20044;-49
2022/07/26 06:49:32;;;;;;;9.57;4.40;;;18.10;99.90;;;;;;5071926;28;20044;-50
2022/07/26 06:51:59;;;;;;;5.18;4.57;;;18.10;99.90;;;;;;5055877;28;20110;-48
2022/07/26 06:54:26;;;;;;;6.13;4.38;;;18.00;99.90;;;;;;5073077;28;20047;-49
2022/07/26 06:56:53;;;;;;;3.60;3.25;;;18.00;99.90;;;;;;5072555;28;20048;-47
2022/07/26 06:59:20;;;;;;;5.97;3.90;;;18.10;99.90;;;;;;5055703;28;20167;-49
2022/07/26 07:01:46;;;;;;;6.20;4.35;;;18.10;99.90;;;;;;5074061;28;20059;-48
2022/07/26 07:04:26;;;;;;;11.85;4.57;;;18.10;99.90;;;;;;5073320;28;20040;-50
2022/07/26 07:06:53;;;;;;;5.82;3.60;;;18.10;99.90;;;;;;5055063;28;20558;-51
2022/07/26 07:09:20;;;;;;;4.85;4.13;;;18.10;99.90;;;;;;5073872;28;20048;-51
2022/07/26 07:11:48;;;;;;;5.07;4.13;;;18.10;99.90;;;;;;5047962;28;20063;-50
2022/07/26 07:14:21;;;;;;;7.05;3.90;;;18.10;99.90;;;;;;5053181;28;20052;-50
2022/07/26 07:16:49;;;;;;;8.43;4.05;;;18.10;99.90;;;;;;5054434;28;20048;-56
2022/07/26 07:19:15;;;;;;;6.78;3.63;;;18.10;99.90;;;;;;5054248;28;20044;-55
2022/07/26 07:21:42;;;;;;;9.07;3.83;;;18.10;99.90;;;;;;5054139;28;20099;-54
2022/07/26 07:24:09;;;;;;;;;;;18.10;99.90;;;;;;5054833;28;20559;-53
2022/07/26 07:26:36;;;;;;;4.68;4.10;;;18.00;99.90;;;;;;5054020;28;20359;-54
2022/07/26 07:29:03;;;;;;;5.18;3.67;;;18.10;99.90;;;;;;5036417;28;20051;-54
2022/07/26 07:31:30;;;;;;;4.60;3.75;;;18.00;99.90;;;;;;5054175;28;20042;-54
2022/07/26 07:34:16;;;;;;;5.70;4.05;;;18.00;99.90;;;;;;5052818;28;20049;-54
2022/07/26 07:36:45;;;;;;;6.75;4.03;;;18.00;99.90;;;;;;5065683;28;20039;-54
2022/07/26 07:39:12;;;;;;;7.13;3.83;;;18.00;99.90;;;;;;5067639;28;20071;-54
2022/07/26 07:41:44;;;;;;;3.65;2.88;;;17.90;99.90;;;;;;5053668;28;20033;-52
2022/07/26 07:44:11;;;;;;;2.70;2.20;;;17.90;99.90;;;;;;5052565;28;20049;-53
2022/07/26 07:46:38;;;;;;;5.63;2.85;;;17.80;99.90;;;;;;5054098;28;20094;-53
2022/07/26 07:49:05;;;;;;;3.55;2.95;;;17.80;99.90;;;;;;5066951;28;20052;-53
2022/07/26 07:51:33;;;;;;;3.92;2.80;;;17.70;99.90;;;;;;5073858;28;20047;-54
2022/07/26 07:54:02;;;;;;;6.35;3.22;;;17.70;99.90;;;;;;5073332;28;20040;-52
2022/07/26 07:56:32;;;;;;;4.43;3.00;;;17.60;99.90;;;;;;5074361;28;20527;-53
2022/07/26 07:58:59;;;;;;;2.83;2.55;;;17.60;99.90;;;;;;5073414;28;20051;-52
2022/07/26 08:01:26;;;;;;;4.10;3.03;;;17.60;99.90;;;;;;5074113;28;20089;-54
2022/07/26 08:04:08;;;;;;;4.80;3.17;;;17.70;99.90;;;;;;5073238;28;20040;-54
2022/07/26 08:06:35;;;;;;;4.57;2.90;;;17.70;99.90;;;;;;5054978;28;20058;-55
2022/07/26 08:09:03;;;;;;;4.97;3.50;;;17.80;99.90;;;;;;5053262;28;20039;-53
2022/07/26 08:11:32;;;;;;;5.82;3.15;;;17.90;99.90;;;;;;5059250;28;20903;-53
2022/07/26 08:14:00;;;;;;;4.75;3.78;;;18.00;99.90;;;;;;5062025;28;20175;-53
2022/07/26 08:16:27;;;;;;;5.18;3.90;;;18.10;99.90;;;;;;5053239;28;20631;-53
2022/07/26 08:18:55;;;;;;;6.15;3.67;;;18.20;99.90;;;;;;5052200;28;20074;-55
2022/07/26 08:21:25;;;;;;;9.30;5.85;;;18.20;99.90;;;;;;5054685;28;20222;-54
2022/07/26 08:23:54;;;;;;;7.60;3.28;;;18.30;99.90;;;;;;5072283;28;20044;-54
2022/07/26 08:26:39;;;;;;;7.47;2.70;;;18.30;99.90;;;;;;5073320;28;20499;-55
2022/07/26 08:29:06;;;;;;;3.13;2.40;;;18.30;99.90;;;;;;5073886;28;20623;-53
2022/07/26 08:31:33;;;;;;;3.30;2.60;;;18.20;99.90;;;;;;5071385;28;20048;-54
2022/07/26 08:34:00;;;;;;;4.40;2.50;;;18.20;99.90;;;;;;5072641;28;20044;-54
2022/07/26 08:36:26;;;;;;;4.30;2.40;;;18.20;99.90;;;;;;5064013;28;20048;-55
2022/07/26 08:38:59;;;;;;;4.13;2.60;;;18.20;99.90;;;;;;5051599;28;20044;-53
2022/07/26 08:41:26;;;;;;;2.75;2.15;;;18.30;99.90;;;;;;5053511;28;20044;-56
2022/07/26 08:43:54;;;;;;;3.33;2.13;;;18.30;99.90;;;;;;5051086;28;20057;-53
2022/07/26 08:46:23;;;;;;;5.00;2.38;;;18.30;99.90;;;;;;5053402;28;20054;-55
2022/07/26 08:48:56;;;;;;;2.92;1.90;;;18.30;99.90;;;;;;5057369;28;20040;-54
2022/07/26 08:51:24;;;;;;;2.60;2.40;;;18.30;99.90;;;;;;5051988;28;20056;-58
2022/07/26 08:53:54;;;;;;;5.82;1.73;;;18.30;99.90;;;;;;5072569;28;20044;-55
2022/07/26 08:56:31;;;;;;;2.97;2.28;;;18.30;99.90;;;;;;5073647;28;20046;-55
2022/07/26 08:58:58;;;;;;;2.42;1.73;;;18.30;99.90;;;;;;5072638;28;20036;-54
2022/07/26 09:01:25;;;;;;;3.67;2.30;;;18.40;99.90;;;;;;5071432;28;20610;-53
2022/07/26 09:03:52;;;;;;;3.20;2.20;;;18.40;99.90;;;;;;5073004;28;20123;-55
2022/07/26 09:06:21;;;;;;;4.68;2.15;;;18.50;99.90;;;;;;5070146;28;20098;-54
2022/07/26 09:09:09;;;;;;;4.10;2.15;;;18.60;99.90;;;;;;5057554;28;20048;-54
2022/07/26 09:11:37;;;;;;;2.95;2.50;;;18.70;99.90;;;;;;5069717;28;20051;-54
2022/07/26 09:14:05;;;;;;;4.90;2.38;;;18.80;99.90;;;;;;5056192;28;20036;-53
2022/07/26 09:16:32;;;;;;;3.45;1.92;;;18.90;99.90;;;;;;5056086;28;20119;-54
2022/07/26 09:19:16;;;;;;;4.93;2.30;;;19.00;99.90;;;;;;5055810;28;20049;-53
2022/07/26 09:21:45;;;;;;;3.15;2.47;;;19.10;99.90;;;;;;5056178;28;20040;-55
2022/07/26 09:24:27;;;;;;;4.22;2.45;;;19.20;99.90;;;;;;5056462;28;20041;-54
2022/07/26 09:26:59;;;;;;;2.90;2.50;;;19.30;99.90;;;;;;5056321;28;20045;-52
2022/07/26 09:29:27;;;;;;;5.25;2.60;;;19.30;99.90;;;;;;5055850;28;20052;-52
2022/07/26 09:32:09;;;;;;;6.35;2.60;;;19.40;99.90;;;;;;5056536;28;20048;-54
2022/07/26 09:34:37;;;;;;;6.35;2.50;;;19.30;99.90;;;;;;5056057;28;20068;-53
2022/07/26 09:37:31;;;;;;;4.00;2.58;;;19.40;99.90;;;;;;5071330;28;20444;-52
2022/07/26 09:40:00;;;;;;;7.30;2.42;;;19.40;99.90;;;;;;5076176;28;20043;-52
2022/07/26 09:42:28;;;;;;;3.78;2.20;;;19.40;99.90;;;;;;5065980;28;20407;-50
2022/07/26 09:44:57;;;;;;;3.45;2.53;;;19.50;99.90;;;;;;5053971;28;20231;-52
2022/07/26 09:47:39;;;;;;;5.47;2.53;;;19.50;99.90;;;;;;5056492;28;20044;-52
2022/07/26 09:50:11;;;;;;;5.53;2.75;;;19.50;99.90;;;;;;5062060;28;20051;-52
2022/07/26 09:52:38;;;;;;;3.13;2.10;;;19.60;99.90;;;;;;5056528;28;20048;-52
2022/07/26 09:55:07;;;;;;;2.63;2.22;;;19.70;99.90;;;;;;5070495;28;20102;-53
2022/07/26 09:57:34;;;;;;;3.08;2.88;;;19.80;99.90;;;;;;5055946;28;20127;-51
2022/07/26 10:00:05;;;;;;;3.92;2.40;;;20.00;99.90;;;;;;5055858;28;20072;-53
2022/07/26 10:02:33;;;;;;;4.20;2.13;;;20.20;99.90;;;;;;5056045;28;20045;-52
2022/07/26 10:05:00;;;;;;;3.88;2.10;;;20.40;99.90;;;;;;5055677;28;20159;-53
2022/07/26 10:07:27;;;;;;;2.20;1.95;;;20.60;99.90;;;;;;5047432;28;20989;-54
2022/07/26 10:10:03;;;;;;;1.80;1.60;;;20.70;99.90;;;;;;5066557;28;20037;-53
2022/07/26 10:12:31;;;;;;;2.35;1.80;;;20.90;99.90;;;;;;5069257;28;20047;-52
2022/07/26 10:14:59;;;;;;;2.67;2.08;;;21.00;99.90;;;;;;5056048;28;20660;-53
2022/07/26 10:17:28;;;;;;;2.35;1.80;;;21.20;99.90;;;;;;5054239;28;20653;-54
2022/07/26 10:20:02;;;;;;;6.35;2.20;;;21.30;99.90;;;;;;5054453;28;20123;-58
2022/07/26 10:22:44;;;;;;;5.97;2.00;;;21.30;99.90;;;;;;5066421;28;20595;-53
2022/07/26 10:25:17;;;;;;;2.25;1.85;;;21.30;99.90;;;;;;5076220;28;20036;-54
2022/07/26 10:27:51;;;;;;;3.28;1.83;;;21.30;99.90;;;;;;5074009;28;20052;-54
2022/07/26 10:30:21;;;;;;;6.18;1.98;;;21.30;99.90;;;;;;5076050;28;20051;-54
2022/07/26 10:33:05;;;;;;;2.83;2.00;;;21.40;99.90;;;;;;5073421;28;20148;-53
2022/07/26 10:35:43;;;;;;;3.10;1.95;;;21.50;99.90;;;;;;5072664;28;20855;-53
2022/07/26 10:38:25;;;;;;;3.65;2.20;;;21.60;99.90;;;;;;5055775;28;20044;-54
2022/07/26 10:40:58;;;;;;;2.55;2.20;;;21.70;99.90;;;;;;5054705;28;20044;-54
2022/07/26 10:43:26;;;;;;;3.10;1.83;;;21.90;99.90;;;;;;5055100;28;20064;-55
2022/07/26 10:46:16;;;;;;;3.28;2.28;;;22.00;99.90;;;;;;5036436;28;20052;-54
2022/07/26 10:49:05;;;;;;;1.67;1.58;;;22.10;99.90;;;;;;5055052;28;20732;-53
2022/07/26 10:51:34;;;;;;;2.58;1.80;;;22.20;99.90;;;;;;5064345;28;20044;-52
2022/07/26 10:54:10;;;;;;;1.98;1.88;;;22.30;99.90;;;;;;5074171;28;20549;-52
2022/07/26 10:56:39;;;;;;;2.75;2.28;;;22.40;99.90;;;;;;5074682;28;20043;-52
2022/07/26 10:59:06;;;;;;;3.03;2.10;;;22.60;99.90;;;;;;5075843;28;20644;-53
2022/07/26 11:01:36;;;;;;;3.47;1.92;;;22.80;99.90;;;;;;5056861;28;20501;-53
2022/07/26 11:04:06;;;;;;;2.20;1.92;;;23.00;99.90;;;;;;5075178;28;20706;-52
2022/07/26 11:06:33;;;;;;;2.55;1.67;;;23.10;99.90;;;;;;5074996;28;20349;-53
2022/07/26 11:09:09;;;;;;;3.38;2.20;;;23.20;99.90;;;;;;5061431;28;20036;-53
2022/07/26 11:11:36;;;;;;;2.03;1.63;;;23.20;99.90;;;;;;5067575;28;20041;-53
2022/07/26 11:14:03;;;;;;;5.25;2.47;;;23.30;99.90;;;;;;5053681;28;20474;-53
2022/07/26 11:16:36;;;;;;;3.33;2.00;;;23.50;99.90;;;;;;5053554;28;20044;-53
2022/07/26 11:19:18;;;;;;;5.32;2.10;;;23.60;99.90;;;;;;5054321;28;20127;-52
2022/07/26 11:21:52;;;;;;;5.18;2.40;;;23.60;99.90;;;;;;5054478;28;20044;-53
2022/07/26 11:24:20;;;;;;;4.53;2.08;;;23.50;99.90;;;;;;5053782;28;20049;-54
2022/07/26 11:26:47;;;;;;;3.65;2.30;;;23.40;99.90;;;;;;5054455;28;20040;-53
2022/07/26 11:29:14;;;;;;;6.03;2.17;;;23.30;99.90;;;;;;5054207;28;20052;-53
2022/07/26 11:31:47;;;;;;;5.38;2.20;;;23.40;99.90;;;;;;5055240;28;20698;-53
2022/07/26 11:34:27;;;;;;;5.53;2.60;;;23.70;99.90;;;;;;5053608;28;20798;-53
2022/07/26 11:36:57;;;;;;;9.40;2.10;;;23.90;99.90;;;;;;5067182;28;20032;-53
2022/07/26 11:39:26;;;;;;;2.15;1.95;;;24.00;99.90;;;;;;5074389;28;20519;-53
2022/07/26 11:41:58;;;;;;;2.30;1.60;;;24.10;99.90;;;;;;5074212;28;20047;-52
2022/07/26 11:44:26;;;;;;;6.57;2.00;;;24.10;99.90;;;;;;5072433;28;20040;-51
2022/07/26 11:46:53;;;;;;;3.33;2.00;;;24.10;99.90;;;;;;5058732;28;20661;-52
2022/07/26 11:49:23;;;;;;;3.50;2.25;;;24.20;99.90;;;;;;5052543;28;20048;-52
2022/07/26 11:52:10;;;;;;;5.70;2.30;;;24.20;99.90;;;;;;5057403;28;20076;-52
2022/07/26 11:54:49;;;;;;;7.65;2.50;;;24.20;99.90;;;;;;5071207;28;20113;-51
2022/07/26 11:57:17;;;;;;;5.47;1.90;;;24.10;99.90;;;;;;5072462;28;20047;-52
2022/07/26 11:59:46;;;;;;;2.72;1.65;;;24.10;99.90;;;;;;5073222;28;20040;-52
2022/07/26 12:02:13;;;;;;;2.70;1.90;;;24.20;99.90;;;;;;5073941;28;20040;-51
2022/07/26 12:04:42;;;;;;;2.65;1.60;;;24.20;99.90;;;;;;5073304;28;20060;-48
2022/07/26 12:07:16;;;;;;;5.90;2.05;;;24.20;99.90;;;;;;5073709;28;20617;-48
2022/07/26 12:09:49;;;;;;;4.03;2.35;;;24.30;99.90;;;;;;5064034;28;20132;-48
2022/07/26 12:12:19;;;;;;;2.83;2.00;;;24.20;99.90;;;;;;5065803;28;20044;-55
2022/07/26 12:14:55;;;;;;;3.90;1.98;;;24.20;99.90;;;;;;5037106;28;20392;-54
2022/07/26 12:17:22;;;;;;;2.20;1.95;;;24.20;99.90;;;;;;5052220;28;20520;-52
2022/07/26 12:19:49;;;;;;;5.15;2.28;;;24.10;99.90;;;;;;5053191;28;20812;-53
2022/07/26 12:22:18;;;;;;;4.22;1.90;;;23.90;99.90;;;;;;5062646;28;20042;-54
2022/07/26 12:24:51;;;;;;;2.00;1.80;;;23.70;99.90;;;;;;5072956;28;20558;-53
2022/07/26 12:27:24;;;;;;;4.05;2.40;;;23.50;99.90;;;;;;5073979;28;20102;-54
2022/07/26 12:30:15;;;;;;;3.45;2.22;;;23.40;99.90;;;;;;5071871;28;20052;-54
2022/07/26 12:32:44;;;;;;;4.22;2.00;;;23.50;99.90;;;;;;5062945;28;20060;-55
2022/07/26 12:35:16;;;;;;;2.10;1.80;;;23.70;99.90;;;;;;5072902;28;20032;-54
2022/07/26 12:37:46;;;;;;;3.92;2.22;;;23.80;99.90;;;;;;5053755;28;20036;-55
2022/07/26 12:40:16;;;;;;;2.78;1.80;;;23.90;99.90;;;;;;5052212;28;20098;-55
2022/07/26 12:42:49;;;;;;;6.25;2.40;;;23.90;99.90;;;;;;5053490;28;20036;-56
2022/07/26 12:45:19;;;;;;;4.10;1.98;;;23.90;99.90;;;;;;5053720;28;20049;-55
2022/07/26 12:47:48;;;;;;;3.92;2.08;;;24.00;99.90;;;;;;5053349;28;20102;-53
2022/07/26 12:50:18;;;;;;;1.70;1.60;;;24.20;99.90;;;;;;5053134;28;20053;-56
2022/07/26 12:52:45;;;;;;;3.58;2.22;;;24.50;99.90;;;;;;5054725;28;20040;-55
2022/07/26 12:55:15;;;;;;;2.38;1.85;;;24.80;99.90;;;;;;5068924;28;20074;-66
2022/07/26 12:57:43;;;;;;;2.70;1.75;;;25.10;97.50;;;;;;5072657;28;20067;-66
2022/07/26 13:00:15;;;;;;;2.13;1.80;;;25.30;94.50;;;;;;5073616;28;20055;-66
2022/07/26 13:02:43;;;;;;;4.68;1.70;;;25.50;95.10;;;;;;5072723;28;20055;-65